Bow Flora — LAEX5 — position and weather

sailwx.info

Track history (hours):
 
Tides and Currents Weather Stations Pressure Air Temp Water Temp Dewpoint Dewpoint Depression Visibility Wind Speed Wind Dir Waves Ship Positions

Bow Flora

Last reported at 2017-Oct-19 14:55 UTC. Time now 2017-Oct-20 06:51 UTC.
Position N 29°22' W 094°50'.

Length 183 m; draft 9.8 m.

Type: Ship (hazmat cat B). MMSI: 259927000.

Date/timePositionNaut miles runAvg speedWind from/ knotsBaromVisibWave heightAir tempDewpointWater temp
2017-Oct-19 14:55N 29°22' W 094°50'3 0.1
2017-Oct-17 18:37N 29°23' W 094°53'1 6.2
2017-Oct-17 18:30N 29°23' W 094°52'4 3.0
2017-Oct-17 17:03N 29°21' W 094°47'2 8.8
2017-Oct-17 16:51N 29°23' W 094°49'411.7
2017-Oct-17 16:30N 29°27' W 094°50'612.0
2017-Oct-17 16:00N 29°32' W 094°54'611.8
2017-Oct-17 15:30N 29°37' W 094°57'510.9
2017-Oct-17 15:00N 29°42' W 094°60'4 8.4
2017-Oct-17 14:30N 29°44' W 095°04'2 0.1
2017-Oct-16 09:31N 29°45' W 095°06'0 0.2
2017-Oct-16 09:26N 29°45' W 095°06'0 0.6
2017-Oct-16 09:00N 29°45' W 095°06'2 0.1
2017-Oct-15 15:43N 29°44' W 095°08'1 2.0
2017-Oct-15 15:25N 29°44' W 095°07'2 5.8
2017-Oct-15 14:59N 29°46' W 095°05'9 9.1
2017-Oct-15 14:00N 29°39' W 094°58'612.5
2017-Oct-15 13:30N 29°33' W 094°55'713.1
2017-Oct-15 12:56N 29°27' W 094°51'8 0.2
2017-Oct-13 18:37N 29°21' W 094°46'314.4
2017-Oct-13 18:25N 29°22' W 094°48'613.4
2017-Oct-13 18:00N 29°28' W 094°51'612.9
2017-Oct-13 17:30N 29°33' W 094°55'5 9.8
2017-Oct-13 17:00N 29°37' W 094°58'3 5.1
2017-Oct-13 16:31N 29°37' W 095°01'0 0.3
2017-Oct-13 16:00N 29°37' W 095°01'0 0.0
2017-Oct-13 15:30N 29°37' W 095°01'0 0.0
2017-Oct-13 15:00N 29°37' W 095°01'0 0.0
2017-Oct-13 14:30N 29°37' W 095°01'0 0.0
2017-Oct-13 14:00N 29°37' W 095°01'0 0.0
2017-Oct-13 13:24N 29°37' W 095°01'0 0.0
2017-Oct-13 13:00N 29°37' W 095°01'0 0.0
2017-Oct-13 12:30N 29°37' W 095°01'0 0.0
2017-Oct-13 12:00N 29°37' W 095°01'0 0.0
2017-Oct-13 11:30N 29°37' W 095°01'0 0.0
2017-Oct-13 11:00N 29°37' W 095°01'0 0.0
2017-Oct-13 10:30N 29°37' W 095°01'0 0.0
2017-Oct-13 10:00N 29°37' W 095°01'0 0.0
2017-Oct-13 09:30N 29°37' W 095°01'0 0.0
2017-Oct-13 09:00N 29°37' W 095°01'0 0.0
2017-Oct-13 08:30N 29°37' W 095°01'0 0.0
2017-Oct-13 08:00N 29°37' W 095°01'0 0.0
2017-Oct-13 07:30N 29°37' W 095°01'0 0.0
2017-Oct-13 07:00N 29°37' W 095°01'0 0.0
2017-Oct-13 06:30N 29°37' W 095°01'0 0.0
2017-Oct-13 06:00N 29°37' W 095°01'0 0.0
2017-Oct-13 05:30N 29°37' W 095°01'0 0.0
2017-Oct-13 05:00N 29°37' W 095°01'0 0.0
2017-Oct-13 04:30N 29°37' W 095°01'0 0.0
2017-Oct-13 04:00N 29°37' W 095°01'0 0.0
2017-Oct-13 03:30N 29°37' W 095°01'0 0.0
2017-Oct-13 03:00N 29°37' W 095°01'0 0.0
2017-Oct-13 02:30N 29°37' W 095°01'0 0.0
2017-Oct-13 02:00N 29°37' W 095°01'0 0.2
2017-Oct-13 01:31N 29°37' W 095°01'2 3.1
2017-Oct-13 01:01N 29°37' W 094°60'4 7.0
2017-Oct-13 00:31N 29°35' W 094°56'4 8.2
2017-Oct-13 00:01N 29°32' W 094°53'510.4
2017-Oct-12 23:31N 29°27' W 094°51'4 0.2
2017-Oct-12 06:29N 29°24' W 094°49'511.4
2017-Oct-12 06:00N 29°29' W 094°51'611.6
2017-Oct-12 05:30N 29°33' W 094°55'611.8
2017-Oct-12 05:01N 29°39' W 094°58'510.0
2017-Oct-12 04:30N 29°43' W 095°01'4 7.4
2017-Oct-12 04:00N 29°45' W 095°04'9 0.3
2017-Oct-10 23:58N 29°37' W 095°01'0 0.0
2017-Oct-10 23:28N 29°37' W 095°01'0 0.0
2017-Oct-10 22:58N 29°37' W 095°01'0 0.0
2017-Oct-10 22:28N 29°37' W 095°01'0 0.0
2017-Oct-10 21:58N 29°37' W 095°01'0 0.0
2017-Oct-10 21:28N 29°37' W 095°01'0 0.0
2017-Oct-10 20:58N 29°37' W 095°01'0 0.0
2017-Oct-10 20:28N 29°37' W 095°01'0 0.0
2017-Oct-10 19:58N 29°37' W 095°01'0 0.0
2017-Oct-10 19:28N 29°37' W 095°01'0 0.0
2017-Oct-10 18:58N 29°37' W 095°01'0 0.1
2017-Oct-10 18:31N 29°37' W 095°01'2 3.8
2017-Oct-10 18:01N 29°37' W 094°59'5 9.5
2017-Oct-10 17:30N 29°34' W 094°55'612.2
2017-Oct-10 17:00N 29°28' W 094°51'  
Track history (hours):
 
Tides and Currents Weather Stations Pressure Air Temp Water Temp Dewpoint Dewpoint Depression Visibility Wind Speed Wind Dir Waves Ship Positions

Bow Flora

Last reported at 2017-Oct-19 14:55 UTC. Time now 2017-Oct-20 06:51 UTC.
Position N 29°22' W 094°50'.

Length 183 m; draft 9.8 m.

Type: Ship (hazmat cat B). MMSI: 259927000.

Date/timePositionNaut miles runAvg speedWind from/ knotsBaromVisibWave heightAir tempDewpointWater temp
2017-Oct-19 14:55N 29°22' W 094°50'3 0.1
2017-Oct-17 18:37N 29°23' W 094°53'1 6.2
2017-Oct-17 18:30N 29°23' W 094°52'4 3.0
2017-Oct-17 17:03N 29°21' W 094°47'2 8.8
2017-Oct-17 16:51N 29°23' W 094°49'411.7
2017-Oct-17 16:30N 29°27' W 094°50'612.0
2017-Oct-17 16:00N 29°32' W 094°54'611.8
2017-Oct-17 15:30N 29°37' W 094°57'510.9
2017-Oct-17 15:00N 29°42' W 094°60'4 8.4
2017-Oct-17 14:30N 29°44' W 095°04'2 0.1
2017-Oct-16 09:31N 29°45' W 095°06'0 0.2
2017-Oct-16 09:26N 29°45' W 095°06'0 0.6
2017-Oct-16 09:00N 29°45' W 095°06'2 0.1
2017-Oct-15 15:43N 29°44' W 095°08'1 2.0
2017-Oct-15 15:25N 29°44' W 095°07'2 5.8
2017-Oct-15 14:59N 29°46' W 095°05'9 9.1
2017-Oct-15 14:00N 29°39' W 094°58'612.5
2017-Oct-15 13:30N 29°33' W 094°55'713.1
2017-Oct-15 12:56N 29°27' W 094°51'8 0.2
2017-Oct-13 18:37N 29°21' W 094°46'314.4
2017-Oct-13 18:25N 29°22' W 094°48'613.4
2017-Oct-13 18:00N 29°28' W 094°51'612.9
2017-Oct-13 17:30N 29°33' W 094°55'5 9.8
2017-Oct-13 17:00N 29°37' W 094°58'3 5.1
2017-Oct-13 16:31N 29°37' W 095°01'0 0.3
2017-Oct-13 16:00N 29°37' W 095°01'0 0.0
2017-Oct-13 15:30N 29°37' W 095°01'0 0.0
2017-Oct-13 15:00N 29°37' W 095°01'0 0.0
2017-Oct-13 14:30N 29°37' W 095°01'0 0.0
2017-Oct-13 14:00N 29°37' W 095°01'0 0.0
2017-Oct-13 13:24N 29°37' W 095°01'0 0.0
2017-Oct-13 13:00N 29°37' W 095°01'0 0.0
2017-Oct-13 12:30N 29°37' W 095°01'0 0.0
2017-Oct-13 12:00N 29°37' W 095°01'0 0.0
2017-Oct-13 11:30N 29°37' W 095°01'0 0.0
2017-Oct-13 11:00N 29°37' W 095°01'0 0.0
2017-Oct-13 10:30N 29°37' W 095°01'0 0.0
2017-Oct-13 10:00N 29°37' W 095°01'0 0.0
2017-Oct-13 09:30N 29°37' W 095°01'0 0.0
2017-Oct-13 09:00N 29°37' W 095°01'0 0.0
2017-Oct-13 08:30N 29°37' W 095°01'0 0.0
2017-Oct-13 08:00N 29°37' W 095°01'0 0.0
2017-Oct-13 07:30N 29°37' W 095°01'0 0.0
2017-Oct-13 07:00N 29°37' W 095°01'0 0.0
2017-Oct-13 06:30N 29°37' W 095°01'0 0.0
2017-Oct-13 06:00N 29°37' W 095°01'0 0.0
2017-Oct-13 05:30N 29°37' W 095°01'0 0.0
2017-Oct-13 05:00N 29°37' W 095°01'0 0.0
2017-Oct-13 04:30N 29°37' W 095°01'0 0.0
2017-Oct-13 04:00N 29°37' W 095°01'0 0.0
2017-Oct-13 03:30N 29°37' W 095°01'0 0.0
2017-Oct-13 03:00N 29°37' W 095°01'0 0.0
2017-Oct-13 02:30N 29°37' W 095°01'0 0.0
2017-Oct-13 02:00N 29°37' W 095°01'0 0.2
2017-Oct-13 01:31N 29°37' W 095°01'2 3.1
2017-Oct-13 01:01N 29°37' W 094°60'4 7.0
2017-Oct-13 00:31N 29°35' W 094°56'4 8.2
2017-Oct-13 00:01N 29°32' W 094°53'510.4
2017-Oct-12 23:31N 29°27' W 094°51'4 0.2
2017-Oct-12 06:29N 29°24' W 094°49'511.4
2017-Oct-12 06:00N 29°29' W 094°51'611.6
2017-Oct-12 05:30N 29°33' W 094°55'611.8
2017-Oct-12 05:01N 29°39' W 094°58'510.0
2017-Oct-12 04:30N 29°43' W 095°01'4 7.4
2017-Oct-12 04:00N 29°45' W 095°04'9 0.3
2017-Oct-10 23:58N 29°37' W 095°01'0 0.0
2017-Oct-10 23:28N 29°37' W 095°01'0 0.0
2017-Oct-10 22:58N 29°37' W 095°01'0 0.0
2017-Oct-10 22:28N 29°37' W 095°01'0 0.0
2017-Oct-10 21:58N 29°37' W 095°01'0 0.0
2017-Oct-10 21:28N 29°37' W 095°01'0 0.0
2017-Oct-10 20:58N 29°37' W 095°01'0 0.0
2017-Oct-10 20:28N 29°37' W 095°01'0 0.0
2017-Oct-10 19:58N 29°37' W 095°01'0 0.0
2017-Oct-10 19:28N 29°37' W 095°01'0 0.0
2017-Oct-10 18:58N 29°37' W 095°01'0 0.1
2017-Oct-10 18:31N 29°37' W 095°01'2 3.8
2017-Oct-10 18:01N 29°37' W 094°59'5 9.5
2017-Oct-10 17:30N 29°34' W 094°55'612.2
2017-Oct-10 17:00N 29°28' W 094°51'  

Dump ship's entire track history